sensor_id;sensor_type;location;lat;lon;timestamp;P1;durP1;ratioP1;P2;durP2;ratioP2
20468;SDS011;10393;52.460;13.322;2022-08-11T00:00:32;1.85;;;0.65;;
20468;SDS011;10393;52.460;13.322;2022-08-11T00:02:22;3.67;;;0.85;;
20468;SDS011;10393;52.460;13.322;2022-08-11T00:04:08;1.67;;;0.80;;
20468;SDS011;10393;52.460;13.322;2022-08-11T00:05:53;1.20;;;0.77;;
20468;SDS011;10393;52.460;13.322;2022-08-11T00:07:47;2.28;;;0.68;;
20468;SDS011;10393;52.460;13.322;2022-08-11T00:09:35;1.02;;;0.55;;
20468;SDS011;10393;52.460;13.322;2022-08-11T00:11:17;2.03;;;0.65;;
20468;SDS011;10393;52.460;13.322;2022-08-11T00:13:00;0.98;;;0.70;;
20468;SDS011;10393;52.460;13.322;2022-08-11T00:14:43;0.57;;;0.52;;
20468;SDS011;10393;52.460;13.322;2022-08-11T00:16:25;0.75;;;0.50;;
20468;SDS011;10393;52.460;13.322;2022-08-11T00:18:07;2.22;;;0.80;;
20468;SDS011;10393;52.460;13.322;2022-08-11T00:19:48;2.00;;;0.80;;
20468;SDS011;10393;52.460;13.322;2022-08-11T00:21:29;2.58;;;0.80;;
20468;SDS011;10393;52.460;13.322;2022-08-11T00:23:12;1.42;;;0.80;;
20468;SDS011;10393;52.460;13.322;2022-08-11T00:24:55;1.25;;;0.73;;
20468;SDS011;10393;52.460;13.322;2022-08-11T00:26:37;0.60;;;0.60;;
20468;SDS011;10393;52.460;13.322;2022-08-11T00:28:27;2.50;;;0.65;;
20468;SDS011;10393;52.460;13.322;2022-08-11T00:30:10;3.17;;;0.70;;
20468;SDS011;10393;52.460;13.322;2022-08-11T00:31:53;1.10;;;0.70;;
20468;SDS011;10393;52.460;13.322;2022-08-11T00:33:39;1.05;;;0.90;;
20468;SDS011;10393;52.460;13.322;2022-08-11T00:35:23;1.27;;;0.52;;
20468;SDS011;10393;52.460;13.322;2022-08-11T00:37:08;1.73;;;0.70;;
20468;SDS011;10393;52.460;13.322;2022-08-11T00:38:50;0.85;;;0.60;;
20468;SDS011;10393;52.460;13.322;2022-08-11T00:40:52;18.70;;;0.77;;
20468;SDS011;10393;52.460;13.322;2022-08-11T00:42:45;1.27;;;0.63;;
20468;SDS011;10393;52.460;13.322;2022-08-11T01:07:04;0.70;;;0.70;;
20468;SDS011;10393;52.460;13.322;2022-08-11T01:17:10;5.22;;;0.77;;
20468;SDS011;10393;52.460;13.322;2022-08-11T01:34:13;0.70;;;0.60;;
20468;SDS011;10393;52.460;13.322;2022-08-11T01:50:08;8.93;;;1.02;;
20468;SDS011;10393;52.460;13.322;2022-08-11T01:53:50;2.60;;;0.77;;
20468;SDS011;10393;52.460;13.322;2022-08-11T02:00:09;2.13;;;0.80;;
20468;SDS011;10393;52.460;13.322;2022-08-11T02:06:26;1.70;;;0.60;;
20468;SDS011;10393;52.460;13.322;2022-08-11T02:08:44;2.70;;;0.70;;
20468;SDS011;10393;52.460;13.322;2022-08-11T02:12:50;2.80;;;1.20;;
20468;SDS011;10393;52.460;13.322;2022-08-11T02:14:36;1.58;;;0.75;;
20468;SDS011;10393;52.460;13.322;2022-08-11T02:18:21;2.15;;;0.90;;
20468;SDS011;10393;52.460;13.322;2022-08-11T02:20:09;1.10;;;0.70;;
20468;SDS011;10393;52.460;13.322;2022-08-11T02:22:30;0.85;;;0.85;;
20468;SDS011;10393;52.460;13.322;2022-08-11T02:24:58;2.58;;;1.05;;
20468;SDS011;10393;52.460;13.322;2022-08-11T02:31:06;2.78;;;0.80;;
20468;SDS011;10393;52.460;13.322;2022-08-11T02:33:19;1.88;;;0.65;;
20468;SDS011;10393;52.460;13.322;2022-08-11T02:38:59;0.90;;;0.88;;
20468;SDS011;10393;52.460;13.322;2022-08-11T02:42:37;2.38;;;0.90;;
20468;SDS011;10393;52.460;13.322;2022-08-11T02:44:33;3.42;;;0.77;;
20468;SDS011;10393;52.460;13.322;2022-08-11T02:46:38;1.63;;;0.70;;
20468;SDS011;10393;52.460;13.322;2022-08-11T02:48:35;2.55;;;0.98;;
20468;SDS011;10393;52.460;13.322;2022-08-11T02:57:15;2.85;;;1.17;;
20468;SDS011;10393;52.460;13.322;2022-08-11T02:59:23;3.33;;;0.77;;
20468;SDS011;10393;52.460;13.322;2022-08-11T03:01:26;1.02;;;0.80;;
20468;SDS011;10393;52.460;13.322;2022-08-11T03:13:30;2.63;;;1.10;;
20468;SDS011;10393;52.460;13.322;2022-08-11T03:15:40;2.45;;;0.93;;
20468;SDS011;10393;52.460;13.322;2022-08-11T03:22:02;1.25;;;1.08;;
20468;SDS011;10393;52.460;13.322;2022-08-11T03:23:52;2.97;;;1.00;;
20468;SDS011;10393;52.460;13.322;2022-08-11T03:28:08;0.85;;;0.77;;
20468;SDS011;10393;52.460;13.322;2022-08-11T03:32:19;2.33;;;0.95;;
20468;SDS011;10393;52.460;13.322;2022-08-11T03:34:03;1.13;;;1.00;;
20468;SDS011;10393;52.460;13.322;2022-08-11T03:38:01;0.85;;;0.85;;
20468;SDS011;10393;52.460;13.322;2022-08-11T03:39:59;1.05;;;0.85;;
20468;SDS011;10393;52.460;13.322;2022-08-11T03:42:00;7.78;;;1.35;;
20468;SDS011;10393;52.460;13.322;2022-08-11T03:46:09;2.55;;;1.00;;
20468;SDS011;10393;52.460;13.322;2022-08-11T03:47:56;3.30;;;0.93;;
20468;SDS011;10393;52.460;13.322;2022-08-11T04:12:33;3.85;;;1.55;;
20468;SDS011;10393;52.460;13.322;2022-08-11T04:16:45;5.43;;;1.45;;
20468;SDS011;10393;52.460;13.322;2022-08-11T04:26:41;7.13;;;1.40;;
20468;SDS011;10393;52.460;13.322;2022-08-11T04:28:48;2.97;;;0.93;;
20468;SDS011;10393;52.460;13.322;2022-08-11T04:35:31;6.93;;;1.38;;
20468;SDS011;10393;52.460;13.322;2022-08-11T04:37:44;2.28;;;1.20;;
20468;SDS011;10393;52.460;13.322;2022-08-11T04:56:45;6.18;;;1.30;;
20468;SDS011;10393;52.460;13.322;2022-08-11T04:58:59;5.30;;;2.10;;
20468;SDS011;10393;52.460;13.322;2022-08-11T05:03:34;3.50;;;1.67;;
20468;SDS011;10393;52.460;13.322;2022-08-11T05:13:49;1.90;;;1.50;;
20468;SDS011;10393;52.460;13.322;2022-08-11T05:15:50;5.97;;;2.38;;
20468;SDS011;10393;52.460;13.322;2022-08-11T05:18:01;2.33;;;1.90;;
20468;SDS011;10393;52.460;13.322;2022-08-11T05:20:10;8.38;;;2.20;;
20468;SDS011;10393;52.460;13.322;2022-08-11T05:22:10;3.70;;;2.00;;
20468;SDS011;10393;52.460;13.322;2022-08-11T05:24:12;4.05;;;1.88;;
20468;SDS011;10393;52.460;13.322;2022-08-11T05:26:18;3.83;;;2.35;;
20468;SDS011;10393;52.460;13.322;2022-08-11T05:28:27;3.33;;;1.80;;
20468;SDS011;10393;52.460;13.322;2022-08-11T05:30:32;2.50;;;1.80;;
20468;SDS011;10393;52.460;13.322;2022-08-11T05:32:35;2.58;;;2.38;;
20468;SDS011;10393;52.460;13.322;2022-08-11T05:36:39;4.75;;;2.13;;
20468;SDS011;10393;52.460;13.322;2022-08-11T05:38:25;7.00;;;2.35;;
20468;SDS011;10393;52.460;13.322;2022-08-11T05:40:27;4.03;;;2.35;;
20468;SDS011;10393;52.460;13.322;2022-08-11T05:42:27;10.80;;;2.45;;
20468;SDS011;10393;52.460;13.322;2022-08-11T05:44:28;4.18;;;2.53;;
20468;SDS011;10393;52.460;13.322;2022-08-11T05:46:28;4.07;;;2.35;;
20468;SDS011;10393;52.460;13.322;2022-08-11T05:48:30;2.33;;;2.10;;
20468;SDS011;10393;52.460;13.322;2022-08-11T05:50:31;5.03;;;2.17;;
20468;SDS011;10393;52.460;13.322;2022-08-11T05:52:31;8.00;;;2.55;;
20468;SDS011;10393;52.460;13.322;2022-08-11T05:54:31;10.57;;;2.53;;
20468;SDS011;10393;52.460;13.322;2022-08-11T05:56:32;3.75;;;2.15;;
20468;SDS011;10393;52.460;13.322;2022-08-11T05:58:13;2.45;;;2.08;;
20468;SDS011;10393;52.460;13.322;2022-08-11T05:59:59;9.50;;;2.72;;
20468;SDS011;10393;52.460;13.322;2022-08-11T06:01:41;2.17;;;1.90;;
20468;SDS011;10393;52.460;13.322;2022-08-11T06:03:27;8.77;;;2.38;;
20468;SDS011;10393;52.460;13.322;2022-08-11T06:05:09;6.40;;;2.88;;
20468;SDS011;10393;52.460;13.322;2022-08-11T06:08:35;3.80;;;2.10;;
20468;SDS011;10393;52.460;13.322;2022-08-11T06:10:30;2.97;;;2.33;;
20468;SDS011;10393;52.460;13.322;2022-08-11T06:12:22;6.28;;;2.50;;
20468;SDS011;10393;52.460;13.322;2022-08-11T06:14:04;5.97;;;2.95;;
20468;SDS011;10393;52.460;13.322;2022-08-11T06:15:46;6.45;;;2.67;;
20468;SDS011;10393;52.460;13.322;2022-08-11T06:17:29;5.45;;;2.30;;
20468;SDS011;10393;52.460;13.322;2022-08-11T06:19:13;5.60;;;2.47;;
20468;SDS011;10393;52.460;13.322;2022-08-11T06:20:55;3.00;;;2.25;;
20468;SDS011;10393;52.460;13.322;2022-08-11T06:22:37;16.20;;;2.80;;
20468;SDS011;10393;52.460;13.322;2022-08-11T06:24:20;5.68;;;2.83;;
20468;SDS011;10393;52.460;13.322;2022-08-11T06:26:04;6.78;;;2.88;;
20468;SDS011;10393;52.460;13.322;2022-08-11T06:27:53;5.22;;;2.92;;
20468;SDS011;10393;52.460;13.322;2022-08-11T06:29:43;3.05;;;2.85;;
20468;SDS011;10393;52.460;13.322;2022-08-11T06:31:26;4.47;;;3.00;;
20468;SDS011;10393;52.460;13.322;2022-08-11T06:33:15;4.07;;;2.90;;
20468;SDS011;10393;52.460;13.322;2022-08-11T06:42:13;5.57;;;3.35;;
20468;SDS011;10393;52.460;13.322;2022-08-11T06:47:45;3.33;;;3.03;;
20468;SDS011;10393;52.460;13.322;2022-08-11T06:49:34;7.57;;;3.80;;
20468;SDS011;10393;52.460;13.322;2022-08-11T06:51:35;3.45;;;3.13;;
20468;SDS011;10393;52.460;13.322;2022-08-11T06:53:20;6.25;;;3.40;;
20468;SDS011;10393;52.460;13.322;2022-08-11T06:55:07;7.00;;;4.15;;
20468;SDS011;10393;52.460;13.322;2022-08-11T06:56:50;6.13;;;3.35;;
20468;SDS011;10393;52.460;13.322;2022-08-11T06:58:53;5.78;;;3.25;;
20468;SDS011;10393;52.460;13.322;2022-08-11T07:00:54;3.28;;;2.97;;
20468;SDS011;10393;52.460;13.322;2022-08-11T07:02:42;11.52;;;3.65;;
20468;SDS011;10393;52.460;13.322;2022-08-11T07:06:15;4.47;;;2.45;;
20468;SDS011;10393;52.460;13.322;2022-08-11T07:12:42;12.82;;;3.53;;
20468;SDS011;10393;52.460;13.322;2022-08-11T07:14:46;5.53;;;3.33;;
20468;SDS011;10393;52.460;13.322;2022-08-11T07:16:48;6.15;;;2.83;;
20468;SDS011;10393;52.460;13.322;2022-08-11T07:18:31;5.00;;;2.95;;
20468;SDS011;10393;52.460;13.322;2022-08-11T07:20:32;3.33;;;3.05;;
20468;SDS011;10393;52.460;13.322;2022-08-11T07:22:33;11.13;;;2.63;;
20468;SDS011;10393;52.460;13.322;2022-08-11T07:24:38;6.25;;;3.78;;
20468;SDS011;10393;52.460;13.322;2022-08-11T07:26:48;4.80;;;3.30;;
20468;SDS011;10393;52.460;13.322;2022-08-11T07:28:49;5.38;;;3.38;;
20468;SDS011;10393;52.460;13.322;2022-08-11T07:30:39;4.15;;;3.83;;
20468;SDS011;10393;52.460;13.322;2022-08-11T07:32:25;4.43;;;3.97;;
20468;SDS011;10393;52.460;13.322;2022-08-11T07:36:00;4.85;;;4.28;;
20468;SDS011;10393;52.460;13.322;2022-08-11T07:37:46;6.57;;;3.63;;
20468;SDS011;10393;52.460;13.322;2022-08-11T07:39:32;3.95;;;3.58;;
20468;SDS011;10393;52.460;13.322;2022-08-11T07:41:14;5.00;;;4.38;;
20468;SDS011;10393;52.460;13.322;2022-08-11T07:42:56;6.22;;;4.65;;
20468;SDS011;10393;52.460;13.322;2022-08-11T07:44:40;4.35;;;3.95;;
20468;SDS011;10393;52.460;13.322;2022-08-11T07:46:41;3.97;;;3.80;;
20468;SDS011;10393;52.460;13.322;2022-08-11T07:48:41;5.90;;;4.20;;
20468;SDS011;10393;52.460;13.322;2022-08-11T07:50:42;4.85;;;4.43;;
20468;SDS011;10393;52.460;13.322;2022-08-11T07:52:43;4.70;;;4.30;;
20468;SDS011;10393;52.460;13.322;2022-08-11T07:54:26;6.30;;;4.80;;
20468;SDS011;10393;52.460;13.322;2022-08-11T07:56:07;5.53;;;5.13;;
20468;SDS011;10393;52.460;13.322;2022-08-11T07:57:48;5.70;;;4.85;;
20468;SDS011;10393;52.460;13.322;2022-08-11T07:59:48;5.45;;;5.15;;
20468;SDS011;10393;52.460;13.322;2022-08-11T08:01:57;5.70;;;5.30;;
20468;SDS011;10393;52.460;13.322;2022-08-11T08:03:58;6.78;;;6.15;;
20468;SDS011;10393;52.460;13.322;2022-08-11T08:05:57;7.10;;;6.72;;
20468;SDS011;10393;52.460;13.322;2022-08-11T08:07:58;6.60;;;6.40;;
20468;SDS011;10393;52.460;13.322;2022-08-11T08:09:58;6.50;;;6.25;;
20468;SDS011;10393;52.460;13.322;2022-08-11T08:11:59;6.00;;;5.65;;
20468;SDS011;10393;52.460;13.322;2022-08-11T08:14:00;6.40;;;5.85;;
20468;SDS011;10393;52.460;13.322;2022-08-11T08:16:00;5.40;;;5.10;;
20468;SDS011;10393;52.460;13.322;2022-08-11T08:18:01;5.47;;;5.03;;
20468;SDS011;10393;52.460;13.322;2022-08-11T08:19:45;5.72;;;5.22;;
20468;SDS011;10393;52.460;13.322;2022-08-11T08:21:27;7.15;;;4.65;;
20468;SDS011;10393;52.460;13.322;2022-08-11T08:23:08;4.82;;;4.60;;
20468;SDS011;10393;52.460;13.322;2022-08-11T08:24:49;3.70;;;3.50;;
20468;SDS011;10393;52.460;13.322;2022-08-11T08:26:31;5.00;;;2.38;;
20468;SDS011;10393;52.460;13.322;2022-08-11T08:28:32;4.53;;;1.90;;
20468;SDS011;10393;52.460;13.322;2022-08-11T08:30:13;2.47;;;2.13;;
20468;SDS011;10393;52.460;13.322;2022-08-11T08:32:13;6.70;;;2.10;;
20468;SDS011;10393;52.460;13.322;2022-08-11T08:33:55;2.20;;;2.00;;
20468;SDS011;10393;52.460;13.322;2022-08-11T08:35:36;2.45;;;2.00;;
20468;SDS011;10393;52.460;13.322;2022-08-11T08:37:18;2.97;;;2.13;;
20468;SDS011;10393;52.460;13.322;2022-08-11T08:38:59;8.27;;;2.70;;
20468;SDS011;10393;52.460;13.322;2022-08-11T08:40:41;3.00;;;2.10;;
20468;SDS011;10393;52.460;13.322;2022-08-11T08:42:26;2.67;;;2.47;;
20468;SDS011;10393;52.460;13.322;2022-08-11T08:44:11;2.30;;;2.00;;
20468;SDS011;10393;52.460;13.322;2022-08-11T08:45:54;2.50;;;2.30;;
20468;SDS011;10393;52.460;13.322;2022-08-11T08:47:36;9.30;;;2.83;;
20468;SDS011;10393;52.460;13.322;2022-08-11T08:49:33;2.40;;;1.95;;
20468;SDS011;10393;52.460;13.322;2022-08-11T08:51:17;3.13;;;2.10;;
20468;SDS011;10393;52.460;13.322;2022-08-11T08:53:13;7.10;;;1.88;;
20468;SDS011;10393;52.460;13.322;2022-08-11T08:54:55;4.18;;;2.47;;
20468;SDS011;10393;52.460;13.322;2022-08-11T08:56:40;2.08;;;1.98;;
20468;SDS011;10393;52.460;13.322;2022-08-11T08:58:22;4.95;;;1.63;;
20468;SDS011;10393;52.460;13.322;2022-08-11T09:00:04;5.15;;;2.22;;
20468;SDS011;10393;52.460;13.322;2022-08-11T09:01:50;2.25;;;2.08;;
20468;SDS011;10393;52.460;13.322;2022-08-11T09:03:37;4.88;;;1.45;;
20468;SDS011;10393;52.460;13.322;2022-08-11T09:05:18;1.95;;;1.70;;
20468;SDS011;10393;52.460;13.322;2022-08-11T09:07:07;4.53;;;1.85;;
20468;SDS011;10393;52.460;13.322;2022-08-11T09:08:49;2.28;;;1.92;;
20468;SDS011;10393;52.460;13.322;2022-08-11T09:10:30;5.05;;;1.73;;
20468;SDS011;10393;52.460;13.322;2022-08-11T09:12:12;2.03;;;1.88;;
20468;SDS011;10393;52.460;13.322;2022-08-11T09:13:53;2.88;;;1.50;;
20468;SDS011;10393;52.460;13.322;2022-08-11T09:15:34;2.28;;;2.00;;
20468;SDS011;10393;52.460;13.322;2022-08-11T09:17:17;2.70;;;2.15;;
20468;SDS011;10393;52.460;13.322;2022-08-11T09:18:59;4.00;;;2.00;;
20468;SDS011;10393;52.460;13.322;2022-08-11T09:20:40;3.30;;;2.00;;
20468;SDS011;10393;52.460;13.322;2022-08-11T09:22:21;2.13;;;1.92;;
20468;SDS011;10393;52.460;13.322;2022-08-11T09:24:20;3.40;;;1.92;;
20468;SDS011;10393;52.460;13.322;2022-08-11T09:26:20;2.28;;;1.98;;
20468;SDS011;10393;52.460;13.322;2022-08-11T09:28:20;2.50;;;1.63;;
20468;SDS011;10393;52.460;13.322;2022-08-11T09:30:03;2.15;;;1.65;;
20468;SDS011;10393;52.460;13.322;2022-08-11T09:31:44;3.47;;;1.60;;
20468;SDS011;10393;52.460;13.322;2022-08-11T09:33:26;3.42;;;1.40;;
20468;SDS011;10393;52.460;13.322;2022-08-11T09:35:08;1.67;;;1.58;;
20468;SDS011;10393;52.460;13.322;2022-08-11T09:36:49;3.38;;;1.35;;
20468;SDS011;10393;52.460;13.322;2022-08-11T09:38:48;2.42;;;1.70;;
20468;SDS011;10393;52.460;13.322;2022-08-11T09:40:50;2.30;;;1.38;;
20468;SDS011;10393;52.460;13.322;2022-08-11T09:42:31;5.45;;;1.73;;
20468;SDS011;10393;52.460;13.322;2022-08-11T09:44:31;2.13;;;1.48;;
20468;SDS011;10393;52.460;13.322;2022-08-11T09:46:28;4.65;;;1.63;;
20468;SDS011;10393;52.460;13.322;2022-08-11T09:48:10;4.88;;;1.50;;
20468;SDS011;10393;52.460;13.322;2022-08-11T09:49:51;4.03;;;1.75;;
20468;SDS011;10393;52.460;13.322;2022-08-11T09:51:37;1.80;;;1.55;;
20468;SDS011;10393;52.460;13.322;2022-08-11T09:53:19;5.22;;;1.60;;
20468;SDS011;10393;52.460;13.322;2022-08-11T09:55:02;2.58;;;1.33;;
20468;SDS011;10393;52.460;13.322;2022-08-11T09:56:52;3.40;;;1.33;;
20468;SDS011;10393;52.460;13.322;2022-08-11T09:58:52;4.82;;;1.45;;
20468;SDS011;10393;52.460;13.322;2022-08-11T10:00:36;3.15;;;1.30;;
20468;SDS011;10393;52.460;13.322;2022-08-11T10:02:27;1.83;;;1.40;;
20468;SDS011;10393;52.460;13.322;2022-08-11T10:04:13;1.35;;;1.25;;
20468;SDS011;10393;52.460;13.322;2022-08-11T10:05:59;7.07;;;1.70;;
20468;SDS011;10393;52.460;13.322;2022-08-11T10:08:03;2.20;;;1.63;;
20468;SDS011;10393;52.460;13.322;2022-08-11T10:09:49;3.72;;;1.42;;
20468;SDS011;10393;52.460;13.322;2022-08-11T10:11:32;2.50;;;1.75;;
20468;SDS011;10393;52.460;13.322;2022-08-11T10:13:15;4.80;;;1.85;;
20468;SDS011;10393;52.460;13.322;2022-08-11T10:15:06;5.15;;;1.88;;
20468;SDS011;10393;52.460;13.322;2022-08-11T10:17:08;2.80;;;1.88;;
20468;SDS011;10393;52.460;13.322;2022-08-11T10:18:50;3.67;;;2.00;;
20468;SDS011;10393;52.460;13.322;2022-08-11T10:20:35;5.45;;;1.48;;
20468;SDS011;10393;52.460;13.322;2022-08-11T10:22:17;1.40;;;0.98;;
20468;SDS011;10393;52.460;13.322;2022-08-11T10:24:17;2.00;;;1.90;;
20468;SDS011;10393;52.460;13.322;2022-08-11T10:26:23;1.40;;;1.30;;
20468;SDS011;10393;52.460;13.322;2022-08-11T10:28:25;3.10;;;1.85;;
20468;SDS011;10393;52.460;13.322;2022-08-11T10:30:07;1.55;;;1.45;;
20468;SDS011;10393;52.460;13.322;2022-08-11T10:32:07;5.78;;;1.90;;
20468;SDS011;10393;52.460;13.322;2022-08-11T10:34:19;1.58;;;1.48;;
20468;SDS011;10393;52.460;13.322;2022-08-11T10:36:09;2.67;;;1.80;;
20468;SDS011;10393;52.460;13.322;2022-08-11T10:37:56;3.08;;;1.52;;
20468;SDS011;10393;52.460;13.322;2022-08-11T10:39:38;4.07;;;1.75;;
20468;SDS011;10393;52.460;13.322;2022-08-11T10:41:19;6.65;;;1.90;;
20468;SDS011;10393;52.460;13.322;2022-08-11T10:43:22;1.55;;;1.45;;
20468;SDS011;10393;52.460;13.322;2022-08-11T10:45:12;3.65;;;1.50;;
20468;SDS011;10393;52.460;13.322;2022-08-11T10:47:13;1.15;;;1.00;;
20468;SDS011;10393;52.460;13.322;2022-08-11T10:49:13;3.92;;;1.60;;
20468;SDS011;10393;52.460;13.322;2022-08-11T10:50:54;3.80;;;1.40;;
20468;SDS011;10393;52.460;13.322;2022-08-11T10:53:21;3.28;;;1.60;;
20468;SDS011;10393;52.460;13.322;2022-08-11T10:55:31;4.18;;;1.98;;
20468;SDS011;10393;52.460;13.322;2022-08-11T10:57:35;4.78;;;2.22;;
20468;SDS011;10393;52.460;13.322;2022-08-11T10:59:36;1.60;;;1.50;;
20468;SDS011;10393;52.460;13.322;2022-08-11T11:01:32;2.45;;;1.67;;
20468;SDS011;10393;52.460;13.322;2022-08-11T11:03:32;3.90;;;1.65;;
20468;SDS011;10393;52.460;13.322;2022-08-11T11:05:28;1.63;;;1.52;;
20468;SDS011;10393;52.460;13.322;2022-08-11T11:07:42;4.53;;;2.03;;
20468;SDS011;10393;52.460;13.322;2022-08-11T11:10:24;3.28;;;1.95;;
20468;SDS011;10393;52.460;13.322;2022-08-11T11:12:07;2.67;;;1.30;;
20468;SDS011;10393;52.460;13.322;2022-08-11T11:14:36;2.25;;;1.83;;
20468;SDS011;10393;52.460;13.322;2022-08-11T11:17:05;3.38;;;1.38;;
20468;SDS011;10393;52.460;13.322;2022-08-11T11:21:57;2.38;;;1.65;;
20468;SDS011;10393;52.460;13.322;2022-08-11T11:37:47;2.75;;;1.30;;
20468;SDS011;10393;52.460;13.322;2022-08-11T11:39:35;1.70;;;1.60;;
20468;SDS011;10393;52.460;13.322;2022-08-11T11:41:41;8.02;;;1.70;;
20468;SDS011;10393;52.460;13.322;2022-08-11T11:43:32;4.30;;;1.98;;
20468;SDS011;10393;52.460;13.322;2022-08-11T11:45:25;2.28;;;1.80;;
20468;SDS011;10393;52.460;13.322;2022-08-11T11:47:19;2.90;;;1.45;;
20468;SDS011;10393;52.460;13.322;2022-08-11T11:49:10;2.03;;;1.50;;
20468;SDS011;10393;52.460;13.322;2022-08-11T11:50:59;1.80;;;1.70;;
20468;SDS011;10393;52.460;13.322;2022-08-11T11:52:44;5.38;;;1.88;;
20468;SDS011;10393;52.460;13.322;2022-08-11T11:54:27;1.67;;;1.58;;
20468;SDS011;10393;52.460;13.322;2022-08-11T11:56:57;2.20;;;1.90;;
20468;SDS011;10393;52.460;13.322;2022-08-11T11:59:04;1.67;;;1.58;;
20468;SDS011;10393;52.460;13.322;2022-08-11T12:01:10;4.18;;;1.77;;
20468;SDS011;10393;52.460;13.322;2022-08-11T12:03:20;2.33;;;2.00;;
20468;SDS011;10393;52.460;13.322;2022-08-11T12:05:32;4.72;;;1.75;;
20468;SDS011;10393;52.460;13.322;2022-08-11T12:07:25;3.15;;;2.00;;
20468;SDS011;10393;52.460;13.322;2022-08-11T12:09:27;3.10;;;1.70;;
20468;SDS011;10393;52.460;13.322;2022-08-11T12:11:10;2.78;;;1.73;;
20468;SDS011;10393;52.460;13.322;2022-08-11T12:13:14;1.90;;;1.80;;
20468;SDS011;10393;52.460;13.322;2022-08-11T12:15:39;2.45;;;1.67;;
20468;SDS011;10393;52.460;13.322;2022-08-11T12:17:20;5.45;;;2.00;;
20468;SDS011;10393;52.460;13.322;2022-08-11T12:19:30;1.60;;;1.50;;
20468;SDS011;10393;52.460;13.322;2022-08-11T12:21:17;3.05;;;1.63;;
20468;SDS011;10393;52.460;13.322;2022-08-11T12:23:01;2.60;;;1.67;;
20468;SDS011;10393;52.460;13.322;2022-08-11T12:25:14;3.38;;;2.15;;
20468;SDS011;10393;52.460;13.322;2022-08-11T12:27:27;2.13;;;1.35;;
20468;SDS011;10393;52.460;13.322;2022-08-11T12:30:00;3.05;;;1.70;;
20468;SDS011;10393;52.460;13.322;2022-08-11T12:32:07;2.40;;;1.35;;
20468;SDS011;10393;52.460;13.322;2022-08-11T12:36:21;1.02;;;0.77;;
20468;SDS011;10393;52.460;13.322;2022-08-11T12:38:20;2.40;;;1.52;;
20468;SDS011;10393;52.460;13.322;2022-08-11T12:40:26;1.75;;;1.65;;
20468;SDS011;10393;52.460;13.322;2022-08-11T12:42:38;3.00;;;1.30;;
20468;SDS011;10393;52.460;13.322;2022-08-11T12:44:50;2.75;;;1.77;;
20468;SDS011;10393;52.460;13.322;2022-08-11T12:46:55;7.57;;;2.40;;
20468;SDS011;10393;52.460;13.322;2022-08-11T12:48:47;1.50;;;1.40;;
20468;SDS011;10393;52.460;13.322;2022-08-11T12:50:53;1.05;;;1.02;;
20468;SDS011;10393;52.460;13.322;2022-08-11T12:52:59;1.85;;;1.35;;
20468;SDS011;10393;52.460;13.322;2022-08-11T12:55:06;2.83;;;2.10;;
20468;SDS011;10393;52.460;13.322;2022-08-11T12:56:54;1.80;;;1.67;;
20468;SDS011;10393;52.460;13.322;2022-08-11T12:58:57;6.68;;;1.75;;
20468;SDS011;10393;52.460;13.322;2022-08-11T13:00:59;1.80;;;1.60;;
20468;SDS011;10393;52.460;13.322;2022-08-11T13:02:59;1.80;;;1.70;;
20468;SDS011;10393;52.460;13.322;2022-08-11T13:05:03;11.00;;;2.65;;
20468;SDS011;10393;52.460;13.322;2022-08-11T13:07:13;5.22;;;1.88;;
20468;SDS011;10393;52.460;13.322;2022-08-11T13:08:55;2.65;;;1.17;;
20468;SDS011;10393;52.460;13.322;2022-08-11T13:10:40;1.58;;;1.40;;
20468;SDS011;10393;52.460;13.322;2022-08-11T13:12:40;2.60;;;2.15;;
20468;SDS011;10393;52.460;13.322;2022-08-11T13:14:32;2.53;;;2.28;;
20468;SDS011;10393;52.460;13.322;2022-08-11T13:16:14;2.20;;;1.88;;
20468;SDS011;10393;52.460;13.322;2022-08-11T13:17:59;1.60;;;1.50;;
20468;SDS011;10393;52.460;13.322;2022-08-11T13:19:41;3.55;;;1.52;;
20468;SDS011;10393;52.460;13.322;2022-08-11T13:21:23;3.70;;;1.13;;
20468;SDS011;10393;52.460;13.322;2022-08-11T13:23:13;2.13;;;1.30;;
20468;SDS011;10393;52.460;13.322;2022-08-11T13:24:55;1.67;;;1.58;;
20468;SDS011;10393;52.460;13.322;2022-08-11T13:26:40;2.33;;;1.58;;
20468;SDS011;10393;52.460;13.322;2022-08-11T13:28:22;1.40;;;1.02;;
20468;SDS011;10393;52.460;13.322;2022-08-11T13:30:04;1.00;;;0.70;;
20468;SDS011;10393;52.460;13.322;2022-08-11T13:32:04;0.88;;;0.88;;
20468;SDS011;10393;52.460;13.322;2022-08-11T13:33:48;4.05;;;1.20;;
20468;SDS011;10393;52.460;13.322;2022-08-11T13:35:33;2.30;;;1.30;;
20468;SDS011;10393;52.460;13.322;2022-08-11T13:37:14;1.83;;;1.05;;
20468;SDS011;10393;52.460;13.322;2022-08-11T13:38:55;1.50;;;1.20;;
20468;SDS011;10393;52.460;13.322;2022-08-11T13:40:37;1.55;;;1.13;;
20468;SDS011;10393;52.460;13.322;2022-08-11T13:42:25;1.80;;;1.13;;
20468;SDS011;10393;52.460;13.322;2022-08-11T13:44:10;3.10;;;1.85;;
20468;SDS011;10393;52.460;13.322;2022-08-11T13:45:53;11.02;;;2.03;;
20468;SDS011;10393;52.460;13.322;2022-08-11T13:48:02;1.35;;;1.25;;
20468;SDS011;10393;52.460;13.322;2022-08-11T13:49:52;1.70;;;1.08;;
20468;SDS011;10393;52.460;13.322;2022-08-11T13:51:37;6.30;;;1.58;;
20468;SDS011;10393;52.460;13.322;2022-08-11T13:53:23;2.67;;;0.95;;
20468;SDS011;10393;52.460;13.322;2022-08-11T13:55:11;11.32;;;1.50;;
20468;SDS011;10393;52.460;13.322;2022-08-11T13:57:04;2.50;;;0.93;;
20468;SDS011;10393;52.460;13.322;2022-08-11T13:58:49;1.48;;;1.02;;
20468;SDS011;10393;52.460;13.322;2022-08-11T14:00:32;3.72;;;1.20;;
20468;SDS011;10393;52.460;13.322;2022-08-11T14:02:20;1.30;;;1.20;;
20468;SDS011;10393;52.460;13.322;2022-08-11T14:04:09;2.60;;;1.10;;
20468;SDS011;10393;52.460;13.322;2022-08-11T14:05:52;6.80;;;1.27;;
20468;SDS011;10393;52.460;13.322;2022-08-11T14:07:40;1.75;;;1.10;;
20468;SDS011;10393;52.460;13.322;2022-08-11T14:09:29;1.08;;;1.08;;
20468;SDS011;10393;52.460;13.322;2022-08-11T14:11:14;2.45;;;1.40;;
20468;SDS011;10393;52.460;13.322;2022-08-11T14:13:15;1.00;;;1.00;;
20468;SDS011;10393;52.460;13.322;2022-08-11T14:15:18;1.60;;;1.27;;
20468;SDS011;10393;52.460;13.322;2022-08-11T14:17:14;1.50;;;1.35;;
20468;SDS011;10393;52.460;13.322;2022-08-11T14:19:02;8.88;;;1.30;;
20468;SDS011;10393;52.460;13.322;2022-08-11T14:20:54;3.67;;;1.33;;
20468;SDS011;10393;52.460;13.322;2022-08-11T14:23:01;1.13;;;0.85;;
20468;SDS011;10393;52.460;13.322;2022-08-11T14:24:44;1.95;;;1.27;;
20468;SDS011;10393;52.460;13.322;2022-08-11T14:26:42;3.58;;;1.40;;
20468;SDS011;10393;52.460;13.322;2022-08-11T14:28:32;1.50;;;0.98;;
20468;SDS011;10393;52.460;13.322;2022-08-11T14:31:03;1.73;;;1.13;;
20468;SDS011;10393;52.460;13.322;2022-08-11T14:32:45;4.95;;;1.33;;
20468;SDS011;10393;52.460;13.322;2022-08-11T14:34:49;1.83;;;0.98;;
20468;SDS011;10393;52.460;13.322;2022-08-11T14:38:59;4.18;;;0.98;;
20468;SDS011;10393;52.460;13.322;2022-08-11T14:41:01;6.55;;;1.52;;
20468;SDS011;10393;52.460;13.322;2022-08-11T14:43:04;1.00;;;0.98;;
20468;SDS011;10393;52.460;13.322;2022-08-11T14:45:08;1.90;;;0.80;;
20468;SDS011;10393;52.460;13.322;2022-08-11T14:47:10;2.47;;;1.10;;
20468;SDS011;10393;52.460;13.322;2022-08-11T14:48:58;0.70;;;0.70;;
20468;SDS011;10393;52.460;13.322;2022-08-11T14:50:45;2.92;;;1.58;;
20468;SDS011;10393;52.460;13.322;2022-08-11T14:52:27;2.13;;;0.90;;
20468;SDS011;10393;52.460;13.322;2022-08-11T14:54:10;1.35;;;1.15;;
20468;SDS011;10393;52.460;13.322;2022-08-11T14:56:10;1.13;;;1.02;;